Time;durP1;ratioP1;P1;durP2;ratioP2;P2;SDS_P1;SDS_P2;PMS_P1;PMS_P2;Temp;Humidity;BMP_temperature;BMP_pressure;BME280_temperature;BME280_humidity;BME280_pressure;Samples;Min_cycle;Max_cycle;Signal;HPM_P1;HPM_P2
2021/09/20 00:01:14;;;;;;;5.80;2.90;;;;;;;10.27;81.91;98704.23;235768;1190;25185;-76
2021/09/20 00:06:17;;;;;;;3.80;2.20;;;;;;;10.28;81.98;98697.89;236197;1190;22416;-75
2021/09/20 00:11:20;;;;;;;4.40;2.10;;;;;;;10.31;82.03;98701.34;236292;1189;24085;-74
2021/09/20 00:16:40;;;;;;;4.20;2.40;;;;;;;10.35;81.99;98699.29;236511;1197;24059;-75
2021/09/20 00:21:47;;;;;;;4.10;2.70;;;;;;;10.34;81.87;98700.73;236139;1197;23256;-77
2021/09/20 00:26:50;;;;;;;5.30;2.90;;;;;;;10.34;81.82;98696.74;236406;1197;24060;-76
2021/09/20 00:31:53;;;;;;;4.90;2.60;;;;;;;10.37;82.04;98701.88;236210;1197;22664;-75
2021/09/20 00:36:56;;;;;;;3.40;2.10;;;;;;;10.42;82.01;98701.43;235940;1197;25235;-75
2021/09/20 00:42:19;;;;;;;5.10;3.00;;;;;;;10.44;82.24;98694.06;236172;1190;22420;-77
2021/09/20 00:47:22;;;;;;;6.10;2.80;;;;;;;10.42;82.32;98689.34;236137;1193;24047;-76
2021/09/20 00:52:25;;;;;;;5.30;3.40;;;;;;;10.41;82.12;98693.80;236116;1197;24044;-75
2021/09/20 00:57:28;;;;;;;4.50;2.70;;;;;;;10.43;82.43;98692.48;236025;1197;24155;-75
2021/09/20 01:02:31;;;;;;;9.60;2.90;;;;;;;10.47;82.30;98688.46;236134;1197;24053;-77
2021/09/20 01:07:34;;;;;;;5.90;2.80;;;;;;;10.44;82.31;98685.45;236358;1197;22637;-74
2021/09/20 01:12:38;;;;;;;4.90;3.00;;;;;;;10.42;82.29;98688.46;236027;1197;22452;-77
2021/09/20 01:17:42;;;;;;;4.00;2.50;;;;;;;10.40;82.41;98689.73;235983;1197;24075;-75
2021/09/20 01:22:51;;;;;;;5.40;2.80;;;;;;;10.41;82.53;98688.13;236127;1197;22417;-76
2021/09/20 01:27:53;;;;;;;4.00;2.60;;;;;;;10.37;82.40;98686.23;236096;1190;22851;-77
2021/09/20 01:32:56;;;;;;;6.50;3.00;;;;;;;10.35;82.44;98690.50;236056;1183;24050;-76
2021/09/20 01:37:59;;;;;;;5.40;2.80;;;;;;;10.32;82.44;98691.00;236120;1194;24065;-76
2021/09/20 01:43:04;;;;;;;5.40;3.10;;;;;;;10.29;82.27;98692.47;236066;1197;22423;-74
2021/09/20 01:48:07;;;;;;;7.50;3.10;;;;;;;10.27;82.45;98696.46;236146;1197;25145;-77
2021/09/20 01:53:10;;;;;;;6.30;3.00;;;;;;;10.25;82.61;98695.58;235971;1192;24042;-76
2021/09/20 01:58:13;;;;;;;5.30;2.60;;;;;;;10.26;82.79;98693.48;236273;1197;24055;-74
2021/09/20 02:03:16;;;;;;;6.90;3.30;;;;;;;10.27;82.67;98688.95;236238;1197;25113;-74
2021/09/20 02:08:19;;;;;;;5.10;2.60;;;;;;;10.30;82.95;98685.60;236170;1197;24746;-77
2021/09/20 02:13:21;;;;;;;3.70;2.60;;;;;;;10.32;82.69;98684.08;236341;1197;24040;-74
2021/09/20 02:18:25;;;;;;;4.50;3.20;;;;;;;10.29;82.84;98679.20;235952;1192;25385;-76
2021/09/20 02:23:28;;;;;;;6.90;3.40;;;;;;;10.24;82.60;98682.58;236088;1192;24053;-76
2021/09/20 02:28:36;;;;;;;5.00;2.70;;;;;;;10.23;82.71;98685.60;236319;1190;24057;-74
2021/09/20 02:33:39;;;;;;;4.20;2.60;;;;;;;10.23;82.96;98689.62;236342;1190;23981;-74
2021/09/20 02:38:42;;;;;;;5.40;2.80;;;;;;;10.21;82.89;98690.05;235957;1197;24076;-74
2021/09/20 02:43:45;;;;;;;6.50;3.50;;;;;;;10.21;83.11;98693.05;236009;1193;22441;-76
2021/09/20 02:48:47;;;;;;;6.80;3.00;;;;;;;10.21;82.88;98692.74;236027;1189;24040;-76
2021/09/20 02:53:50;;;;;;;5.70;3.20;;;;;;;10.20;83.11;98684.67;235952;1198;25164;-77
2021/09/20 02:59:08;;;;;;;3.70;2.50;;;;;;;10.21;83.05;98684.33;236122;1197;23973;-76
2021/09/20 03:04:17;;;;;;;7.90;3.60;;;;;;;10.20;82.98;98692.59;235719;1197;25025;-75
2021/09/20 03:09:23;;;;;;;5.90;2.90;;;;;;;10.16;83.09;98692.69;236161;1190;24080;-75
2021/09/20 03:14:26;;;;;;;3.70;2.60;;;;;;;10.15;83.25;98691.80;236023;1197;22429;-77
2021/09/20 03:19:28;;;;;;;3.10;2.00;;;;;;;10.12;82.97;98693.07;235880;1192;24048;-78
2021/09/20 03:24:31;;;;;;;4.00;2.80;;;;;;;10.09;83.22;98696.89;235948;1198;22609;-77
2021/09/20 03:29:34;;;;;;;3.20;2.60;;;;;;;10.08;83.18;98698.15;235674;1198;24124;-76
2021/09/20 03:34:49;;;;;;;5.70;3.10;;;;;;;10.07;83.48;98697.14;235932;1197;24102;-74
2021/09/20 03:40:05;;;;;;;3.80;2.50;;;;;;;10.09;83.49;98698.08;236224;1174;24044;-75
2021/09/20 03:45:20;;;;;;;4.80;2.80;;;;;;;10.09;83.53;98696.48;235910;1197;22421;-76
2021/09/20 03:50:51;;;;;;;5.30;3.20;;;;;;;10.06;83.45;98693.94;235990;1197;24548;-76
2021/09/20 03:55:54;;;;;;;5.10;3.20;;;;;;;10.05;83.40;98700.70;235940;1197;22451;-75
2021/09/20 04:00:57;;;;;;;4.50;2.30;;;;;;;10.05;83.65;98705.36;235944;1197;22607;-76
2021/09/20 04:06:00;;;;;;;6.60;3.10;;;;;;;10.03;83.69;98705.70;236055;1197;24085;-74
2021/09/20 04:11:03;;;;;;;7.10;3.60;;;;;;;10.04;83.83;98713.20;236301;1197;24056;-78
2021/09/20 04:16:06;;;;;;;4.30;2.90;;;;;;;10.06;84.01;98715.35;236062;1197;22447;-76
2021/09/20 04:21:09;;;;;;;5.50;3.00;;;;;;;10.12;84.09;98716.89;236082;1192;23975;-77
2021/09/20 04:26:12;;;;;;;4.10;2.70;;;;;;;10.14;84.07;98720.66;235738;1192;22444;-74
2021/09/20 04:31:15;;;;;;;12.70;4.00;;;;;;;10.17;84.18;98722.88;235876;1197;24063;-76
2021/09/20 04:36:18;;;;;;;7.00;3.30;;;;;;;10.17;83.91;98729.69;235645;1190;22457;-76
2021/09/20 04:41:20;;;;;;;4.80;2.90;;;;;;;10.16;84.08;98728.35;235912;1190;22449;-75
2021/09/20 04:46:23;;;;;;;4.30;2.60;;;;;;;10.14;83.83;98729.61;236013;1197;24086;-78
2021/09/20 04:51:26;;;;;;;5.80;3.70;;;;;;;10.13;83.88;98733.32;236001;1183;24076;-77
2021/09/20 04:56:28;;;;;;;4.50;3.20;;;;;;;10.10;83.72;98734.45;236058;1197;25197;-77
2021/09/20 05:01:31;;;;;;;8.10;3.00;;;;;;;10.10;83.65;98737.45;235972;1197;25617;-77
2021/09/20 05:06:34;;;;;;;4.40;2.70;;;;;;;10.10;83.62;98741.21;236300;1197;22432;-75
2021/09/20 05:11:37;;;;;;;5.10;3.00;;;;;;;10.07;83.56;98748.20;236505;1197;22408;-76
2021/09/20 05:16:42;;;;;;;5.00;2.90;;;;;;;10.06;83.66;98747.43;236147;1197;22441;-77
2021/09/20 05:21:44;;;;;;;5.60;3.00;;;;;;;10.08;83.71;98750.70;235794;1192;23999;-77
2021/09/20 05:27:00;;;;;;;5.30;3.00;;;;;;;10.15;83.76;98759.15;236178;1193;25366;-76
2021/09/20 05:32:11;;;;;;;4.30;2.70;;;;;;;10.25;83.86;98764.77;236143;1197;24126;-77
2021/09/20 05:37:16;;;;;;;5.40;2.80;;;;;;;10.32;83.80;98767.14;236257;1190;22703;-76
2021/09/20 05:42:19;;;;;;;5.70;3.00;;;;;;;10.36;83.58;98766.86;236235;1197;25117;-78
2021/09/20 05:47:22;;;;;;;5.30;2.80;;;;;;;10.42;83.41;98770.38;236730;1190;24089;-75
2021/09/20 05:52:25;;;;;;;4.70;3.00;;;;;;;10.52;83.27;98778.12;236593;1197;24021;-77
2021/09/20 05:57:30;;;;;;;4.60;2.80;;;;;;;10.62;83.36;98784.73;236508;1173;22447;-76
2021/09/20 06:02:41;;;;;;;7.60;2.80;;;;;;;10.66;82.90;98787.52;237142;1189;24275;-77
2021/09/20 06:07:46;;;;;;;6.40;3.20;;;;;;;10.59;82.80;98789.86;237209;1192;22416;-76
2021/09/20 06:12:48;;;;;;;6.20;2.70;;;;;;;10.61;82.80;98783.41;237668;1189;22496;-75
2021/09/20 06:18:06;;;;;;;4.60;2.70;;;;;;;10.69;82.87;98783.80;237522;1196;24012;-73
2021/09/20 06:23:15;;;;;;;3.80;2.60;;;;;;;10.82;82.74;98787.04;237597;1189;25749;-76
2021/09/20 06:28:18;;;;;;;6.60;2.40;;;;;;;10.96;82.45;98783.89;237556;1196;22459;-75
2021/09/20 06:33:21;;;;;;;4.60;2.80;;;;;;;11.10;82.19;98777.64;238057;1197;24040;-74
2021/09/20 06:38:24;;;;;;;6.90;2.20;;;;;;;11.18;81.82;98781.01;237578;1197;25143;-73
2021/09/20 06:43:26;;;;;;;3.40;2.60;;;;;;;11.21;81.45;98782.85;237959;1197;24088;-74
2021/09/20 06:48:29;;;;;;;2.50;1.80;;;;;;;11.21;81.09;98788.00;238405;1189;22575;-74
2021/09/20 06:53:33;;;;;;;5.70;2.70;;;;;;;11.29;81.10;98790.01;239602;1196;22498;-74
2021/09/20 06:58:36;;;;;;;4.10;1.80;;;;;;;11.48;80.83;98792.48;240021;1190;23480;-75
2021/09/20 07:03:39;;;;;;;4.00;2.70;;;;;;;11.68;80.41;98795.52;239344;1197;22471;-74
2021/09/20 07:08:43;;;;;;;5.30;2.10;;;;;;;11.75;79.63;98802.27;239705;1190;22447;-74
2021/09/20 07:13:45;;;;;;;3.50;1.70;;;;;;;11.87;79.08;98801.16;239029;1190;24048;-73
2021/09/20 07:18:49;;;;;;;2.50;1.80;;;;;;;11.92;78.68;98803.60;238071;1189;24146;-77
2021/09/20 07:24:00;;;;;;;3.00;2.20;;;;;;;12.02;78.58;98809.30;237615;1197;22482;-78
2021/09/20 07:29:24;;;;;;;2.70;1.80;;;;;;;12.24;78.37;98812.92;236965;1197;22496;-76
2021/09/20 07:34:27;;;;;;;2.50;1.80;;;;;;;12.39;77.93;98820.90;236624;1197;25294;-76
2021/09/20 07:39:30;;;;;;;2.10;1.40;;;;;;;12.40;76.73;98820.83;239517;1192;24177;-76
2021/09/20 07:44:33;;;;;;;1.60;1.30;;;;;;;12.38;76.72;98825.48;236723;1197;22498;-77
2021/09/20 07:49:35;;;;;;;2.50;1.20;;;;;;;12.40;76.49;98830.08;236971;1194;22593;-76
2021/09/20 07:54:38;;;;;;;2.50;1.60;;;;;;;12.27;75.72;98838.44;236352;1196;23971;-76
2021/09/20 07:59:41;;;;;;;2.50;1.40;;;;;;;12.09;75.52;98844.02;236592;1193;24022;-77
2021/09/20 08:04:45;;;;;;;1.70;1.10;;;;;;;11.90;75.37;98850.94;236555;1197;22497;-76
2021/09/20 08:09:48;;;;;;;4.70;1.80;;;;;;;11.77;75.38;98858.55;236689;1190;24024;-73
2021/09/20 08:14:51;;;;;;;1.60;1.10;;;;;;;11.72;75.39;98859.27;236428;1191;22580;-75
2021/09/20 08:19:53;;;;;;;1.50;1.20;;;;;;;11.72;75.43;98864.64;236318;1189;24082;-74
2021/09/20 08:24:56;;;;;;;1.10;1.00;;;;;;;11.77;75.28;98864.29;236531;1189;22445;-75
2021/09/20 08:29:58;;;;;;;1.30;1.00;;;;;;;11.93;75.31;98872.79;236018;1197;24086;-75
2021/09/20 08:35:15;;;;;;;1.80;1.00;;;;;;;12.14;75.46;98872.14;236534;1197;22607;-77
2021/09/20 08:40:35;;;;;;;1.10;0.80;;;;;;;12.38;74.91;98874.91;236335;1190;25415;-75
2021/09/20 08:45:38;;;;;;;0.70;0.60;;;;;;;12.52;73.28;98883.95;236429;1189;22435;-75
2021/09/20 08:50:40;;;;;;;1.70;0.80;;;;;;;12.56;72.51;98881.50;236262;1197;27888;-76
2021/09/20 08:55:44;;;;;;;3.30;0.70;;;;;;;12.70;71.83;98881.06;236441;1197;24120;-75
2021/09/20 09:00:46;;;;;;;0.50;0.50;;;;;;;12.85;71.38;98885.08;236260;1197;24206;-75
2021/09/20 09:05:50;;;;;;;0.70;0.50;;;;;;;13.02;71.08;98882.46;236645;1197;23668;-73
2021/09/20 09:11:05;;;;;;;1.40;0.60;;;;;;;13.42;70.88;98888.30;236861;1190;24619;-75
2021/09/20 09:16:16;;;;;;;1.90;0.60;;;;;;;13.74;70.17;98890.23;236914;1197;22431;-75
2021/09/20 09:21:20;;;;;;;2.50;1.20;;;;;;;14.01;69.63;98893.02;236763;1190;22923;-75
2021/09/20 09:26:23;;;;;;;2.20;1.50;;;;;;;14.11;68.20;98889.92;237610;1184;22491;-75
2021/09/20 09:31:33;;;;;;;1.00;0.90;;;;;;;14.07;67.39;98887.50;238235;1189;22220;-74
2021/09/20 09:36:40;;;;;;;2.50;1.10;;;;;;;14.10;67.17;98889.51;237360;1190;22474;-75
2021/09/20 09:41:44;;;;;;;1.40;1.20;;;;;;;14.11;66.31;98888.03;236870;1190;24095;-75
2021/09/20 09:46:47;;;;;;;2.10;1.80;;;;;;;14.05;65.26;98890.55;236356;1190;22636;-76
2021/09/20 09:51:56;;;;;;;2.80;2.10;;;;;;;13.96;65.19;98894.34;236469;1192;24089;-76
2021/09/20 09:57:11;;;;;;;3.10;2.60;;;;;;;13.97;65.41;98899.42;236610;1197;22442;-77
2021/09/20 10:02:17;;;;;;;1.70;1.40;;;;;;;13.96;64.59;98902.46;236434;1197;22583;-77
2021/09/20 10:07:32;;;;;;;1.70;1.50;;;;;;;14.04;64.54;98898.29;236757;1190;22591;-76
2021/09/20 10:12:45;;;;;;;1.70;1.20;;;;;;;14.14;64.25;98899.59;236220;1197;26277;-76
2021/09/20 10:18:06;;;;;;;1.20;1.00;;;;;;;14.31;63.62;98897.48;236279;1190;22896;-76
2021/09/20 10:23:09;;;;;;;1.30;1.00;;;;;;;14.35;63.21;98890.43;236209;1197;22465;-75
2021/09/20 10:28:13;;;;;;;1.10;0.80;;;;;;;14.47;62.13;98888.45;236381;1197;23785;-78
2021/09/20 10:33:35;;;;;;;2.10;0.70;;;;;;;14.60;60.36;98889.17;236095;1192;24090;-72
2021/09/20 10:38:49;;;;;;;1.30;0.90;;;;;;;14.69;59.62;98893.80;236289;1197;24092;-76
2021/09/20 10:44:00;;;;;;;1.10;0.90;;;;;;;14.69;59.89;98897.73;236776;1196;22448;-72
2021/09/20 10:49:22;;;;;;;1.30;0.90;;;;;;;14.62;59.18;98902.54;236613;1197;22495;-74
2021/09/20 10:54:26;;;;;;;1.00;0.80;;;;;;;14.43;58.90;98910.00;236224;1196;22449;-73
2021/09/20 10:59:30;;;;;;;1.30;1.00;;;;;;;14.27;59.20;98908.81;236116;1190;24037;-75
2021/09/20 11:04:40;;;;;;;1.20;0.90;;;;;;;14.18;59.72;98909.08;236115;1194;25107;-73
2021/09/20 11:09:51;;;;;;;2.00;1.10;;;;;;;14.10;59.77;98910.64;241458;1197;24624;-75
2021/09/20 11:15:05;;;;;;;1.20;1.10;;;;;;;13.92;59.78;98914.73;236689;1197;22478;-74
2021/09/20 11:20:40;;;;;;;1.70;1.10;;;;;;;13.79;59.99;98919.09;238457;1197;22584;-76
2021/09/20 11:26:21;;;;;;;1.30;1.00;;;;;;;13.61;60.02;98917.63;240802;1197;24624;-75
2021/09/20 11:31:28;;;;;;;2.20;1.30;;;;;;;13.45;60.12;98926.05;236084;1197;25415;-73
2021/09/20 11:36:36;;;;;;;2.20;1.40;;;;;;;13.36;60.57;98925.34;237083;1197;23995;-74
2021/09/20 11:41:40;;;;;;;1.90;1.30;;;;;;;13.32;60.62;98929.18;236142;1193;22922;-73
2021/09/20 11:46:45;;;;;;;1.60;1.20;;;;;;;13.27;61.04;98928.63;236959;1197;22598;-75
2021/09/20 11:51:52;;;;;;;1.50;1.20;;;;;;;13.25;61.34;98925.66;235987;1190;25036;-74
2021/09/20 11:57:28;;;;;;;4.40;1.30;;;;;;;13.26;61.47;98925.85;237106;1196;22427;-74
2021/09/20 12:02:44;;;;;;;1.70;1.50;;;;;;;13.25;61.64;98921.79;235821;1197;22450;-74
2021/09/20 12:07:52;;;;;;;2.20;1.30;;;;;;;13.29;61.73;98922.94;236114;1183;24014;-76
2021/09/20 12:12:59;;;;;;;1.40;1.20;;;;;;;13.30;61.52;98926.36;236081;1190;26417;-76
2021/09/20 12:18:13;;;;;;;1.30;1.10;;;;;;;13.32;61.58;98927.55;241473;1190;22462;-75
2021/09/20 12:23:20;;;;;;;1.40;1.00;;;;;;;13.43;62.04;98930.30;235836;1190;22475;-73
2021/09/20 12:28:37;;;;;;;1.60;1.20;;;;;;;13.56;61.78;98942.61;236166;1190;22457;-74
2021/09/20 12:33:50;;;;;;;1.60;1.40;;;;;;;13.58;61.61;98944.13;235866;1190;25042;-74
2021/09/20 12:39:17;;;;;;;1.50;1.40;;;;;;;13.63;61.57;98942.35;237519;1190;22487;-74
2021/09/20 12:44:34;;;;;;;1.50;1.40;;;;;;;13.66;61.30;98948.59;236033;1197;24041;-74
2021/09/20 12:49:38;;;;;;;3.00;1.70;;;;;;;13.64;61.61;98954.81;237222;1190;22435;-74
2021/09/20 12:54:49;;;;;;;1.50;1.40;;;;;;;13.60;61.21;98955.34;236033;1197;22439;-75
2021/09/20 13:00:06;;;;;;;1.60;1.50;;;;;;;13.47;60.87;98958.69;236021;1197;25247;-74
2021/09/20 13:05:12;;;;;;;1.30;1.20;;;;;;;13.32;61.27;98964.09;236891;1190;23007;-76
2021/09/20 13:10:16;;;;;;;2.90;2.50;;;;;;;13.17;61.32;98965.16;238454;1196;22433;-76
2021/09/20 13:15:26;;;;;;;3.00;1.70;;;;;;;13.07;61.81;98959.55;236435;1197;25108;-75
2021/09/20 13:20:35;;;;;;;1.60;1.50;;;;;;;13.11;62.05;98957.84;236315;1190;22632;-76
2021/09/20 13:25:49;;;;;;;1.30;1.20;;;;;;;13.23;62.43;98966.64;236339;1190;23023;-74
2021/09/20 13:30:55;;;;;;;2.70;1.60;;;;;;;13.30;62.20;98969.61;236285;1190;24059;-74
2021/09/20 13:36:09;;;;;;;1.70;1.60;;;;;;;13.30;62.60;98968.52;236325;1190;22560;-75
2021/09/20 13:41:17;;;;;;;2.10;1.60;;;;;;;13.23;62.31;98974.95;236262;1190;22434;-75
2021/09/20 13:46:23;;;;;;;2.20;1.70;;;;;;;13.11;62.29;98975.23;236045;1196;23999;-73
2021/09/20 13:51:25;;;;;;;1.70;1.30;;;;;;;13.00;62.60;98977.36;236367;1190;22471;-75
2021/09/20 13:56:28;;;;;;;3.60;2.80;;;;;;;12.97;62.60;98983.23;236100;1197;24031;-76
2021/09/20 14:01:31;;;;;;;3.20;1.80;;;;;;;12.95;62.71;98985.96;236429;1193;25039;-73
2021/09/20 14:06:34;;;;;;;2.00;1.80;;;;;;;12.90;62.85;98987.40;236405;1192;22498;-76
2021/09/20 14:11:38;;;;;;;2.10;1.90;;;;;;;12.83;62.86;98991.89;236513;1197;22505;-75
2021/09/20 14:16:43;;;;;;;3.20;2.70;;;;;;;12.72;63.00;98993.06;236469;1197;22450;-73
2021/09/20 14:21:45;;;;;;;2.20;1.80;;;;;;;12.63;63.48;98995.76;235953;1197;22634;-75
2021/09/20 14:26:48;;;;;;;2.10;1.90;;;;;;;12.57;63.83;98995.11;235918;1197;22434;-76
2021/09/20 14:31:51;;;;;;;2.70;2.10;;;;;;;12.54;64.06;98998.28;235864;1198;22495;-76
2021/09/20 14:36:59;;;;;;;2.60;2.20;;;;;;;12.52;64.38;98999.17;236152;1197;24043;-75
2021/09/20 14:42:02;;;;;;;2.70;2.20;;;;;;;12.45;64.38;99006.86;236091;1192;24062;-77
2021/09/20 14:47:05;;;;;;;3.40;2.30;;;;;;;12.39;64.70;99007.65;236040;1190;24126;-75
2021/09/20 14:52:07;;;;;;;3.00;2.50;;;;;;;12.37;64.97;99008.13;235974;1194;24640;-76
2021/09/20 14:57:10;;;;;;;3.50;2.70;;;;;;;12.35;65.24;99008.80;236050;1190;25198;-75
2021/09/20 15:02:12;;;;;;;3.10;2.70;;;;;;;12.29;65.55;99017.44;235908;1193;22561;-74
2021/09/20 15:07:15;;;;;;;4.70;3.60;;;;;;;12.22;65.94;99014.90;235744;1197;22461;-77
2021/09/20 15:12:17;;;;;;;4.10;3.10;;;;;;;12.17;66.08;99019.19;235944;1197;26244;-76
2021/09/20 15:17:41;;;;;;;4.30;3.40;;;;;;;12.14;66.63;99014.13;235880;1197;22424;-75
2021/09/20 15:22:45;;;;;;;5.70;3.50;;;;;;;12.10;66.85;99014.79;235928;1198;22427;-74
2021/09/20 15:27:49;;;;;;;4.10;3.10;;;;;;;12.07;67.23;99014.89;236012;1193;22420;-73
2021/09/20 15:32:53;;;;;;;4.50;3.20;;;;;;;12.03;67.41;99022.73;235818;1197;23988;-73
2021/09/20 15:37:55;;;;;;;5.50;4.00;;;;;;;12.02;67.82;99023.23;235635;1192;22548;-76
2021/09/20 15:42:59;;;;;;;5.60;3.60;;;;;;;11.99;68.05;99024.35;235940;1192;24128;-75
2021/09/20 15:48:01;;;;;;;6.90;4.10;;;;;;;11.93;68.08;99029.58;235901;1190;24076;-73
2021/09/20 15:53:04;;;;;;;5.30;3.80;;;;;;;11.88;68.47;99029.79;235937;1191;24053;-76
2021/09/20 15:58:07;;;;;;;7.20;5.00;;;;;;;11.82;68.63;99033.26;235905;1193;22473;-73
2021/09/20 16:03:09;;;;;;;6.70;5.10;;;;;;;11.75;68.79;99036.52;235815;1174;24115;-75
2021/09/20 16:08:17;;;;;;;6.40;4.70;;;;;;;11.69;69.27;99040.42;235680;1190;24003;-75
2021/09/20 16:13:19;;;;;;;8.20;4.80;;;;;;;11.65;69.64;99045.34;235944;1197;24057;-77
2021/09/20 16:18:23;;;;;;;8.30;6.00;;;;;;;11.65;69.80;99049.76;235949;1197;23668;-74
2021/09/20 16:23:26;;;;;;;9.00;5.90;;;;;;;11.62;69.99;99059.28;235982;1197;23964;-76
2021/09/20 16:28:29;;;;;;;9.70;7.00;;;;;;;11.57;70.23;99068.09;235921;1197;22719;-76
2021/09/20 16:33:32;;;;;;;7.30;5.80;;;;;;;11.52;70.24;99072.94;236025;1190;24136;-75
2021/09/20 16:38:44;;;;;;;10.40;6.40;;;;;;;11.48;70.66;99079.15;235860;1190;24056;-76
2021/09/20 16:43:47;;;;;;;10.60;7.80;;;;;;;11.48;70.94;99085.05;235834;1190;22425;-75
2021/09/20 16:48:50;;;;;;;9.90;7.10;;;;;;;11.44;71.18;99088.58;236009;1197;22452;-76
2021/09/20 16:53:53;;;;;;;9.30;6.30;;;;;;;11.40;71.23;99097.59;235888;1198;24196;-75
2021/09/20 16:58:58;;;;;;;9.70;6.10;;;;;;;11.36;71.41;99101.08;236077;1197;22450;-75
2021/09/20 17:04:01;;;;;;;8.60;6.00;;;;;;;11.33;71.64;99103.94;236061;1190;24123;-75
2021/09/20 17:09:04;;;;;;;6.10;4.70;;;;;;;11.26;71.77;99114.31;236143;1197;22451;-75
2021/09/20 17:14:08;;;;;;;8.80;4.70;;;;;;;11.20;72.13;99117.70;236076;1189;25182;-76
2021/09/20 17:19:11;;;;;;;7.20;5.10;;;;;;;11.20;72.33;99119.96;236151;1197;22479;-73
2021/09/20 17:24:14;;;;;;;6.90;5.10;;;;;;;11.17;72.39;99124.05;236298;1193;24120;-76
2021/09/20 17:29:17;;;;;;;5.10;3.90;;;;;;;11.07;72.35;99129.88;236133;1197;24152;-75
2021/09/20 17:34:20;;;;;;;6.60;5.00;;;;;;;11.02;72.72;99133.16;236103;1189;24018;-77
2021/09/20 17:39:22;;;;;;;7.10;5.50;;;;;;;11.00;72.94;99140.35;236076;1190;24053;-76
2021/09/20 17:44:25;;;;;;;8.40;4.60;;;;;;;10.97;73.17;99144.14;235960;1190;24156;-75
2021/09/20 17:49:28;;;;;;;9.20;5.60;;;;;;;10.95;73.37;99150.21;236039;1197;24153;-74
2021/09/20 17:54:31;;;;;;;6.80;5.10;;;;;;;10.92;73.36;99154.36;236041;1197;24150;-75
2021/09/20 17:59:34;;;;;;;12.20;6.00;;;;;;;10.89;73.75;99158.99;236010;1197;22451;-77
2021/09/20 18:04:37;;;;;;;8.20;5.50;;;;;;;10.88;73.92;99165.82;236013;1190;24691;-76
2021/09/20 18:09:39;;;;;;;8.30;6.00;;;;;;;10.88;73.96;99171.17;236099;1190;24149;-74
2021/09/20 18:14:42;;;;;;;7.90;6.20;;;;;;;10.87;74.09;99179.70;235978;1183;24111;-75
2021/09/20 18:19:45;;;;;;;8.10;6.20;;;;;;;10.84;74.15;99186.05;236146;1197;25196;-75
2021/09/20 18:24:47;;;;;;;8.90;6.90;;;;;;;10.80;74.26;99192.89;236285;1197;22566;-76
2021/09/20 18:29:50;;;;;;;11.60;8.60;;;;;;;10.79;74.52;99198.41;236334;1197;24072;-76
2021/09/20 18:34:53;;;;;;;9.80;8.30;;;;;;;10.78;74.64;99198.80;235654;1192;24303;-75
2021/09/20 18:39:57;;;;;;;10.10;7.70;;;;;;;10.75;74.79;99204.81;236331;1192;22446;-76
2021/09/20 18:45:00;;;;;;;10.90;7.40;;;;;;;10.73;74.99;99212.54;236091;1198;24084;-75
2021/09/20 18:50:04;;;;;;;9.40;7.40;;;;;;;10.70;75.07;99216.16;235993;1190;22448;-76
2021/09/20 18:55:08;;;;;;;9.50;7.70;;;;;;;10.65;75.23;99221.55;235974;1198;22422;-75
2021/09/20 19:00:15;;;;;;;11.90;7.80;;;;;;;10.53;75.42;99223.39;236042;1190;22718;-74
2021/09/20 19:05:19;;;;;;;9.70;7.30;;;;;;;10.35;75.38;99225.79;236127;1198;22439;-74
2021/09/20 19:10:22;;;;;;;10.00;6.70;;;;;;;10.16;75.15;99228.09;235655;1190;25047;-75
2021/09/20 19:15:25;;;;;;;13.50;8.60;;;;;;;10.00;75.49;99235.38;236026;1198;22424;-75
2021/09/20 19:20:28;;;;;;;11.00;7.60;;;;;;;9.83;75.35;99244.37;235860;1198;25104;-75
2021/09/20 19:25:31;;;;;;;12.00;7.10;;;;;;;9.66;75.50;99245.90;235936;1198;22465;-75
2021/09/20 19:30:35;;;;;;;10.30;6.50;;;;;;;9.56;75.65;99253.57;236327;1192;24007;-77
2021/09/20 19:35:40;;;;;;;12.10;6.90;;;;;;;9.58;76.05;99255.81;236546;1189;24028;-77
2021/09/20 19:40:44;;;;;;;11.40;7.10;;;;;;;9.65;76.28;99259.02;236354;1189;24036;-74
2021/09/20 19:45:47;;;;;;;10.90;7.20;;;;;;;9.72;76.07;99264.73;236423;1197;24013;-73
2021/09/20 19:50:50;;;;;;;10.70;6.30;;;;;;;9.79;75.98;99278.14;236310;1197;25161;-76
2021/09/20 19:55:55;;;;;;;6.90;5.60;;;;;;;9.85;75.95;99282.32;236440;1197;24075;-76
2021/09/20 20:01:02;;;;;;;7.30;5.40;;;;;;;9.87;75.72;99281.92;236203;1190;25322;-74
2021/09/20 20:06:05;;;;;;;8.30;6.00;;;;;;;9.84;75.68;99274.44;236414;1182;22576;-73
2021/09/20 20:11:09;;;;;;;6.40;4.80;;;;;;;9.82;75.49;99279.15;236375;1191;25367;-76
2021/09/20 20:16:16;;;;;;;6.70;5.00;;;;;;;9.80;75.23;99282.75;236235;1190;22704;-74
2021/09/20 20:21:19;;;;;;;7.80;4.90;;;;;;;9.75;75.02;99293.66;236134;1197;22454;-73
2021/09/20 20:26:24;;;;;;;6.70;4.90;;;;;;;9.71;74.84;99297.20;236325;1197;22471;-78
2021/09/20 20:31:33;;;;;;;6.20;4.40;;;;;;;9.68;74.79;99304.33;236294;1183;24058;-73
2021/09/20 20:36:38;;;;;;;7.30;5.00;;;;;;;9.65;74.69;99313.73;236276;1197;25197;-76
2021/09/20 20:41:41;;;;;;;6.30;4.20;;;;;;;9.59;74.64;99315.52;236152;1197;24048;-75
2021/09/20 20:46:45;;;;;;;5.80;4.30;;;;;;;9.46;74.61;99317.87;236327;1197;24062;-75
2021/09/20 20:52:01;;;;;;;7.00;4.00;;;;;;;9.31;74.71;99329.20;235988;1184;24101;-76
2021/09/20 20:57:04;;;;;;;6.00;4.50;;;;;;;9.16;74.71;99337.48;236286;1197;24014;-73
2021/09/20 21:02:07;;;;;;;8.40;5.40;;;;;;;8.99;74.86;99335.41;236157;1197;25231;-75
2021/09/20 21:07:11;;;;;;;7.60;4.70;;;;;;;8.87;75.16;99339.81;236411;1190;24046;-75
2021/09/20 21:12:15;;;;;;;7.50;5.20;;;;;;;8.82;75.49;99352.09;236343;1190;22446;-76
2021/09/20 21:17:22;;;;;;;8.50;6.10;;;;;;;8.80;75.67;99354.05;236458;1189;24027;-75
2021/09/20 21:22:38;;;;;;;8.90;6.50;;;;;;;8.71;75.95;99358.03;236069;1193;24069;-77
2021/09/20 21:27:41;;;;;;;8.30;6.60;;;;;;;8.58;76.25;99353.06;236359;1190;22443;-76
2021/09/20 21:32:44;;;;;;;8.20;6.30;;;;;;;8.49;76.53;99355.40;236186;1190;25275;-74
2021/09/20 21:37:47;;;;;;;11.80;6.90;;;;;;;8.36;76.55;99365.33;236168;1197;24177;-74
2021/09/20 21:42:49;;;;;;;9.60;6.90;;;;;;;8.20;76.74;99374.34;236252;1183;24081;-74
2021/09/20 21:47:54;;;;;;;8.30;6.40;;;;;;;8.05;76.88;99379.32;236189;1182;22486;-75
2021/09/20 21:52:57;;;;;;;9.00;6.20;;;;;;;7.94;77.13;99379.73;236150;1191;23994;-73
2021/09/20 21:58:03;;;;;;;9.80;6.20;;;;;;;7.86;77.40;99380.41;236308;1192;22433;-75
2021/09/20 22:03:32;;;;;;;9.20;6.10;;;;;;;7.77;77.51;99383.59;236214;1197;25183;-76
2021/09/20 22:08:35;;;;;;;7.60;6.10;;;;;;;7.62;77.77;99383.05;236309;1190;25011;-75
2021/09/20 22:13:37;;;;;;;8.00;5.50;;;;;;;7.55;78.10;99379.68;236632;1192;25264;-73
2021/09/20 22:18:45;;;;;;;6.90;5.80;;;;;;;7.52;78.60;99375.70;236006;1197;22567;-77
2021/09/20 22:23:47;;;;;;;10.00;6.90;;;;;;;7.45;78.55;99375.17;236303;1197;22461;-75
2021/09/20 22:29:03;;;;;;;10.50;6.70;;;;;;;7.32;78.71;99379.90;236508;1189;22461;-74
2021/09/20 22:34:08;;;;;;;9.00;6.50;;;;;;;7.22;78.96;99386.58;236501;1197;22536;-75
2021/09/20 22:39:24;;;;;;;9.40;6.80;;;;;;;7.20;79.24;99390.54;236282;1189;24062;-75
2021/09/20 22:44:40;;;;;;;7.70;6.00;;;;;;;7.15;79.29;99392.24;236103;1174;24054;-74
2021/09/20 22:49:42;;;;;;;8.90;6.30;;;;;;;7.03;79.22;99386.69;236194;1197;25381;-74
2021/09/20 22:54:45;;;;;;;10.40;6.20;;;;;;;6.96;79.58;99392.89;236044;1192;25067;-75
2021/09/20 22:59:48;;;;;;;8.60;6.00;;;;;;;6.90;79.78;99391.92;236110;1192;22465;-75
2021/09/20 23:04:51;;;;;;;7.50;6.40;;;;;;;6.84;79.90;99398.72;236031;1192;22444;-76
2021/09/20 23:09:53;;;;;;;10.40;7.20;;;;;;;6.78;79.78;99404.92;236209;1174;22434;-76
2021/09/20 23:14:56;;;;;;;7.60;5.70;;;;;;;6.63;79.67;99412.09;236179;1197;22450;-76
2021/09/20 23:19:59;;;;;;;8.60;6.60;;;;;;;6.41;79.79;99405.46;236150;1197;25261;-75
2021/09/20 23:25:18;;;;;;;12.70;7.90;;;;;;;6.25;79.72;99406.46;236034;1197;25010;-73
2021/09/20 23:30:34;;;;;;;13.70;8.20;;;;;;;6.09;80.30;99409.33;236351;1190;24018;-75
2021/09/20 23:35:38;;;;;;;13.60;8.50;;;;;;;5.98;80.19;99414.55;236172;1183;25237;-75
2021/09/20 23:40:41;;;;;;;16.60;9.60;;;;;;;5.90;80.96;99412.14;236137;1197;24046;-74
2021/09/20 23:45:44;;;;;;;13.70;9.30;;;;;;;5.91;81.19;99413.27;236258;1197;24518;-75